sensor_id;sensor_type;location;lat;lon;timestamp;P1;durP1;ratioP1;P2;durP2;ratioP2
14015;SDS011;7083;48.854;9.158;2023-07-09T00:01:46;4.10;;;3.90;;
14015;SDS011;7083;48.854;9.158;2023-07-09T00:04:12;3.93;;;3.63;;
14015;SDS011;7083;48.854;9.158;2023-07-09T00:06:41;5.40;;;4.87;;
14015;SDS011;7083;48.854;9.158;2023-07-09T00:09:11;4.73;;;4.43;;
14015;SDS011;7083;48.854;9.158;2023-07-09T00:11:39;5.27;;;4.77;;
14015;SDS011;7083;48.854;9.158;2023-07-09T00:14:07;6.23;;;5.63;;
14015;SDS011;7083;48.854;9.158;2023-07-09T00:16:34;4.53;;;4.13;;
14015;SDS011;7083;48.854;9.158;2023-07-09T00:19:02;6.07;;;4.93;;
14015;SDS011;7083;48.854;9.158;2023-07-09T00:21:28;4.90;;;4.53;;
14015;SDS011;7083;48.854;9.158;2023-07-09T00:24:00;6.57;;;4.77;;
14015;SDS011;7083;48.854;9.158;2023-07-09T00:26:30;5.63;;;4.77;;
14015;SDS011;7083;48.854;9.158;2023-07-09T00:28:57;4.83;;;4.40;;
14015;SDS011;7083;48.854;9.158;2023-07-09T00:31:23;17.93;;;4.80;;
14015;SDS011;7083;48.854;9.158;2023-07-09T00:33:51;4.50;;;4.07;;
14015;SDS011;7083;48.854;9.158;2023-07-09T00:36:18;5.87;;;4.23;;
14015;SDS011;7083;48.854;9.158;2023-07-09T00:38:48;8.17;;;5.00;;
14015;SDS011;7083;48.854;9.158;2023-07-09T00:41:18;5.93;;;4.73;;
14015;SDS011;7083;48.854;9.158;2023-07-09T00:43:47;4.20;;;3.90;;
14015;SDS011;7083;48.854;9.158;2023-07-09T00:49:27;4.50;;;4.10;;
14015;SDS011;7083;48.854;9.158;2023-07-09T00:51:57;4.27;;;3.87;;
14015;SDS011;7083;48.854;9.158;2023-07-09T00:54:28;3.97;;;3.70;;
14015;SDS011;7083;48.854;9.158;2023-07-09T00:57:03;4.37;;;3.97;;
14015;SDS011;7083;48.854;9.158;2023-07-09T00:59:33;4.87;;;4.47;;
14015;SDS011;7083;48.854;9.158;2023-07-09T01:02:00;4.57;;;4.17;;
14015;SDS011;7083;48.854;9.158;2023-07-09T01:04:27;4.50;;;4.10;;
14015;SDS011;7083;48.854;9.158;2023-07-09T01:06:55;4.73;;;4.23;;
14015;SDS011;7083;48.854;9.158;2023-07-09T01:09:23;4.67;;;4.27;;
14015;SDS011;7083;48.854;9.158;2023-07-09T01:11:51;4.80;;;4.40;;
14015;SDS011;7083;48.854;9.158;2023-07-09T01:14:22;5.40;;;5.00;;
14015;SDS011;7083;48.854;9.158;2023-07-09T01:16:52;5.73;;;4.60;;
14015;SDS011;7083;48.854;9.158;2023-07-09T01:19:24;5.17;;;4.70;;
14015;SDS011;7083;48.854;9.158;2023-07-09T01:21:55;4.83;;;4.43;;
14015;SDS011;7083;48.854;9.158;2023-07-09T01:27:20;6.17;;;4.67;;
14015;SDS011;7083;48.854;9.158;2023-07-09T01:29:48;5.27;;;4.07;;
14015;SDS011;7083;48.854;9.158;2023-07-09T01:32:16;4.13;;;3.83;;
14015;SDS011;7083;48.854;9.158;2023-07-09T01:34:45;5.07;;;4.53;;
14015;SDS011;7083;48.854;9.158;2023-07-09T01:37:15;4.90;;;4.50;;
14015;SDS011;7083;48.854;9.158;2023-07-09T01:39:46;5.00;;;4.60;;
14015;SDS011;7083;48.854;9.158;2023-07-09T01:42:14;4.73;;;4.33;;
14015;SDS011;7083;48.854;9.158;2023-07-09T01:44:42;4.33;;;4.07;;
14015;SDS011;7083;48.854;9.158;2023-07-09T01:47:10;5.20;;;4.70;;
14015;SDS011;7083;48.854;9.158;2023-07-09T01:49:37;5.13;;;4.10;;
14015;SDS011;7083;48.854;9.158;2023-07-09T01:52:05;6.53;;;4.80;;
14015;SDS011;7083;48.854;9.158;2023-07-09T01:54:35;4.43;;;4.13;;
14015;SDS011;7083;48.854;9.158;2023-07-09T01:57:12;5.00;;;4.50;;
14015;SDS011;7083;48.854;9.158;2023-07-09T01:59:41;4.93;;;4.53;;
14015;SDS011;7083;48.854;9.158;2023-07-09T02:02:09;4.37;;;4.03;;
14015;SDS011;7083;48.854;9.158;2023-07-09T02:04:44;4.90;;;4.53;;
14015;SDS011;7083;48.854;9.158;2023-07-09T02:07:11;4.73;;;4.30;;
14015;SDS011;7083;48.854;9.158;2023-07-09T02:09:39;4.90;;;4.50;;
14015;SDS011;7083;48.854;9.158;2023-07-09T02:12:07;4.93;;;4.53;;
14015;SDS011;7083;48.854;9.158;2023-07-09T02:14:34;5.07;;;4.67;;
14015;SDS011;7083;48.854;9.158;2023-07-09T02:17:01;4.27;;;3.87;;
14015;SDS011;7083;48.854;9.158;2023-07-09T02:19:28;4.47;;;4.07;;
14015;SDS011;7083;48.854;9.158;2023-07-09T02:21:55;5.47;;;4.50;;
14015;SDS011;7083;48.854;9.158;2023-07-09T02:24:22;5.50;;;4.83;;
14015;SDS011;7083;48.854;9.158;2023-07-09T02:26:51;4.90;;;4.50;;
14015;SDS011;7083;48.854;9.158;2023-07-09T02:29:18;6.00;;;4.47;;
14015;SDS011;7083;48.854;9.158;2023-07-09T02:31:45;5.17;;;4.77;;
14015;SDS011;7083;48.854;9.158;2023-07-09T02:34:11;5.20;;;4.77;;
14015;SDS011;7083;48.854;9.158;2023-07-09T02:36:38;5.30;;;4.80;;
14015;SDS011;7083;48.854;9.158;2023-07-09T02:39:08;4.47;;;4.17;;
14015;SDS011;7083;48.854;9.158;2023-07-09T02:41:34;5.53;;;5.13;;
14015;SDS011;7083;48.854;9.158;2023-07-09T02:44:02;5.00;;;4.50;;
14015;SDS011;7083;48.854;9.158;2023-07-09T02:46:29;5.23;;;4.83;;
14015;SDS011;7083;48.854;9.158;2023-07-09T02:48:56;4.20;;;3.90;;
14015;SDS011;7083;48.854;9.158;2023-07-09T02:51:23;4.17;;;3.70;;
14015;SDS011;7083;48.854;9.158;2023-07-09T02:53:51;4.97;;;4.27;;
14015;SDS011;7083;48.854;9.158;2023-07-09T02:56:19;4.93;;;4.53;;
14015;SDS011;7083;48.854;9.158;2023-07-09T02:58:45;5.30;;;4.80;;
14015;SDS011;7083;48.854;9.158;2023-07-09T03:01:13;5.37;;;4.87;;
14015;SDS011;7083;48.854;9.158;2023-07-09T03:03:40;4.70;;;4.20;;
14015;SDS011;7083;48.854;9.158;2023-07-09T03:06:07;4.83;;;4.43;;
14015;SDS011;7083;48.854;9.158;2023-07-09T03:08:34;4.67;;;4.27;;
14015;SDS011;7083;48.854;9.158;2023-07-09T03:11:02;5.07;;;4.67;;
14015;SDS011;7083;48.854;9.158;2023-07-09T03:13:35;4.80;;;4.40;;
14015;SDS011;7083;48.854;9.158;2023-07-09T03:16:02;4.97;;;4.47;;
14015;SDS011;7083;48.854;9.158;2023-07-09T03:18:30;4.90;;;4.50;;
14015;SDS011;7083;48.854;9.158;2023-07-09T03:20:57;4.50;;;4.20;;
14015;SDS011;7083;48.854;9.158;2023-07-09T03:23:24;5.43;;;4.93;;
14015;SDS011;7083;48.854;9.158;2023-07-09T03:25:50;5.73;;;5.17;;
14015;SDS011;7083;48.854;9.158;2023-07-09T03:28:17;4.73;;;4.33;;
14015;SDS011;7083;48.854;9.158;2023-07-09T03:30:45;5.33;;;4.93;;
14015;SDS011;7083;48.854;9.158;2023-07-09T03:33:14;5.77;;;5.17;;
14015;SDS011;7083;48.854;9.158;2023-07-09T03:35:43;7.90;;;4.97;;
14015;SDS011;7083;48.854;9.158;2023-07-09T03:38:10;6.10;;;5.50;;
14015;SDS011;7083;48.854;9.158;2023-07-09T03:40:37;5.73;;;5.23;;
14015;SDS011;7083;48.854;9.158;2023-07-09T03:43:04;5.33;;;4.83;;
14015;SDS011;7083;48.854;9.158;2023-07-09T03:45:32;5.00;;;4.70;;
14015;SDS011;7083;48.854;9.158;2023-07-09T03:48:01;5.33;;;4.93;;
14015;SDS011;7083;48.854;9.158;2023-07-09T03:50:28;5.50;;;5.00;;
14015;SDS011;7083;48.854;9.158;2023-07-09T03:52:56;5.60;;;5.03;;
14015;SDS011;7083;48.854;9.158;2023-07-09T03:55:23;4.93;;;4.53;;
14015;SDS011;7083;48.854;9.158;2023-07-09T03:57:51;6.20;;;5.00;;
14015;SDS011;7083;48.854;9.158;2023-07-09T04:00:18;5.47;;;5.07;;
14015;SDS011;7083;48.854;9.158;2023-07-09T04:02:45;5.67;;;5.17;;
14015;SDS011;7083;48.854;9.158;2023-07-09T04:05:11;5.17;;;4.77;;
14015;SDS011;7083;48.854;9.158;2023-07-09T04:07:39;5.10;;;4.67;;
14015;SDS011;7083;48.854;9.158;2023-07-09T04:10:07;5.97;;;5.03;;
14015;SDS011;7083;48.854;9.158;2023-07-09T04:12:34;5.70;;;5.10;;
14015;SDS011;7083;48.854;9.158;2023-07-09T04:15:01;5.00;;;4.60;;
14015;SDS011;7083;48.854;9.158;2023-07-09T04:17:28;5.63;;;5.13;;
14015;SDS011;7083;48.854;9.158;2023-07-09T04:19:55;4.60;;;4.30;;
14015;SDS011;7083;48.854;9.158;2023-07-09T04:22:22;7.73;;;5.83;;
14015;SDS011;7083;48.854;9.158;2023-07-09T04:24:48;6.77;;;5.53;;
14015;SDS011;7083;48.854;9.158;2023-07-09T04:27:18;5.37;;;4.87;;
14015;SDS011;7083;48.854;9.158;2023-07-09T04:29:45;5.57;;;5.10;;
14015;SDS011;7083;48.854;9.158;2023-07-09T04:32:13;5.17;;;4.63;;
14015;SDS011;7083;48.854;9.158;2023-07-09T04:34:41;5.30;;;4.77;;
14015;SDS011;7083;48.854;9.158;2023-07-09T04:37:08;6.47;;;5.03;;
14015;SDS011;7083;48.854;9.158;2023-07-09T04:39:36;5.53;;;5.07;;
14015;SDS011;7083;48.854;9.158;2023-07-09T04:42:05;6.13;;;5.07;;
14015;SDS011;7083;48.854;9.158;2023-07-09T04:44:34;5.37;;;4.87;;
14015;SDS011;7083;48.854;9.158;2023-07-09T04:47:00;4.97;;;4.67;;
14015;SDS011;7083;48.854;9.158;2023-07-09T04:49:27;5.50;;;4.73;;
14015;SDS011;7083;48.854;9.158;2023-07-09T04:51:54;6.80;;;5.40;;
14015;SDS011;7083;48.854;9.158;2023-07-09T04:54:21;4.60;;;4.30;;
14015;SDS011;7083;48.854;9.158;2023-07-09T04:56:48;4.97;;;4.57;;
14015;SDS011;7083;48.854;9.158;2023-07-09T04:59:15;5.03;;;4.53;;
14015;SDS011;7083;48.854;9.158;2023-07-09T05:01:43;4.30;;;4.03;;
14015;SDS011;7083;48.854;9.158;2023-07-09T05:04:09;5.33;;;4.83;;
14015;SDS011;7083;48.854;9.158;2023-07-09T05:06:36;4.73;;;4.43;;
14015;SDS011;7083;48.854;9.158;2023-07-09T05:09:02;4.63;;;4.30;;
14015;SDS011;7083;48.854;9.158;2023-07-09T05:11:29;4.40;;;4.10;;
14015;SDS011;7083;48.854;9.158;2023-07-09T05:13:57;4.90;;;4.47;;
14015;SDS011;7083;48.854;9.158;2023-07-09T05:16:23;4.77;;;4.33;;
14015;SDS011;7083;48.854;9.158;2023-07-09T05:18:51;5.83;;;4.33;;
14015;SDS011;7083;48.854;9.158;2023-07-09T05:21:18;5.33;;;4.87;;
14015;SDS011;7083;48.854;9.158;2023-07-09T05:23:45;4.27;;;3.97;;
14015;SDS011;7083;48.854;9.158;2023-07-09T05:26:11;5.23;;;4.73;;
14015;SDS011;7083;48.854;9.158;2023-07-09T05:28:38;4.47;;;4.07;;
14015;SDS011;7083;48.854;9.158;2023-07-09T05:31:05;5.50;;;5.10;;
14015;SDS011;7083;48.854;9.158;2023-07-09T05:33:32;6.80;;;5.10;;
14015;SDS011;7083;48.854;9.158;2023-07-09T05:36:00;4.83;;;4.50;;
14015;SDS011;7083;48.854;9.158;2023-07-09T05:38:27;4.50;;;4.20;;
14015;SDS011;7083;48.854;9.158;2023-07-09T05:41:00;4.50;;;4.20;;
14015;SDS011;7083;48.854;9.158;2023-07-09T05:43:28;5.67;;;4.20;;
14015;SDS011;7083;48.854;9.158;2023-07-09T05:45:55;4.43;;;4.13;;
14015;SDS011;7083;48.854;9.158;2023-07-09T05:48:22;4.03;;;3.73;;
14015;SDS011;7083;48.854;9.158;2023-07-09T05:50:52;4.53;;;4.23;;
14015;SDS011;7083;48.854;9.158;2023-07-09T05:53:21;5.13;;;4.63;;
14015;SDS011;7083;48.854;9.158;2023-07-09T05:55:47;7.07;;;4.20;;
14015;SDS011;7083;48.854;9.158;2023-07-09T05:58:14;4.57;;;4.27;;
14015;SDS011;7083;48.854;9.158;2023-07-09T06:00:41;4.93;;;4.53;;
14015;SDS011;7083;48.854;9.158;2023-07-09T06:03:07;4.53;;;4.20;;
14015;SDS011;7083;48.854;9.158;2023-07-09T06:05:34;4.83;;;4.43;;
14015;SDS011;7083;48.854;9.158;2023-07-09T06:08:01;4.87;;;4.47;;
14015;SDS011;7083;48.854;9.158;2023-07-09T06:10:30;4.60;;;4.20;;
14015;SDS011;7083;48.854;9.158;2023-07-09T06:12:56;4.53;;;4.13;;
14015;SDS011;7083;48.854;9.158;2023-07-09T06:15:24;6.47;;;4.87;;
14015;SDS011;7083;48.854;9.158;2023-07-09T06:17:51;5.37;;;4.87;;
14015;SDS011;7083;48.854;9.158;2023-07-09T06:20:17;6.83;;;5.23;;
14015;SDS011;7083;48.854;9.158;2023-07-09T06:22:44;5.27;;;4.43;;
14015;SDS011;7083;48.854;9.158;2023-07-09T06:25:11;5.73;;;4.67;;
14015;SDS011;7083;48.854;9.158;2023-07-09T06:27:39;5.10;;;4.70;;
14015;SDS011;7083;48.854;9.158;2023-07-09T06:30:06;4.20;;;3.83;;
14015;SDS011;7083;48.854;9.158;2023-07-09T06:32:34;4.97;;;4.47;;
14015;SDS011;7083;48.854;9.158;2023-07-09T06:35:00;5.93;;;4.17;;
14015;SDS011;7083;48.854;9.158;2023-07-09T06:37:27;3.97;;;3.67;;
14015;SDS011;7083;48.854;9.158;2023-07-09T06:39:54;4.93;;;4.23;;
14015;SDS011;7083;48.854;9.158;2023-07-09T06:42:20;6.60;;;4.23;;
14015;SDS011;7083;48.854;9.158;2023-07-09T06:44:48;4.10;;;3.80;;
14015;SDS011;7083;48.854;9.158;2023-07-09T06:47:15;4.47;;;3.93;;
14015;SDS011;7083;48.854;9.158;2023-07-09T06:49:41;5.17;;;4.73;;
14015;SDS011;7083;48.854;9.158;2023-07-09T06:52:08;4.70;;;4.30;;
14015;SDS011;7083;48.854;9.158;2023-07-09T06:54:35;4.23;;;3.83;;
14015;SDS011;7083;48.854;9.158;2023-07-09T06:57:02;4.70;;;4.33;;
14015;SDS011;7083;48.854;9.158;2023-07-09T06:59:29;5.30;;;4.90;;
14015;SDS011;7083;48.854;9.158;2023-07-09T07:01:57;4.77;;;4.37;;
14015;SDS011;7083;48.854;9.158;2023-07-09T07:04:25;4.83;;;4.50;;
14015;SDS011;7083;48.854;9.158;2023-07-09T07:06:51;4.67;;;4.37;;
14015;SDS011;7083;48.854;9.158;2023-07-09T07:09:20;5.03;;;4.53;;
14015;SDS011;7083;48.854;9.158;2023-07-09T07:11:47;5.07;;;3.97;;
14015;SDS011;7083;48.854;9.158;2023-07-09T07:14:14;5.30;;;4.80;;
14015;SDS011;7083;48.854;9.158;2023-07-09T07:16:40;5.20;;;4.70;;
14015;SDS011;7083;48.854;9.158;2023-07-09T07:19:08;4.93;;;4.53;;
14015;SDS011;7083;48.854;9.158;2023-07-09T07:21:35;4.90;;;4.60;;
14015;SDS011;7083;48.854;9.158;2023-07-09T07:24:02;5.20;;;4.80;;
14015;SDS011;7083;48.854;9.158;2023-07-09T07:26:29;4.83;;;4.43;;
14015;SDS011;7083;48.854;9.158;2023-07-09T07:28:56;4.50;;;4.17;;
14015;SDS011;7083;48.854;9.158;2023-07-09T07:31:23;4.40;;;4.10;;
14015;SDS011;7083;48.854;9.158;2023-07-09T07:33:49;4.73;;;4.17;;
14015;SDS011;7083;48.854;9.158;2023-07-09T07:36:18;5.03;;;4.57;;
14015;SDS011;7083;48.854;9.158;2023-07-09T07:38:45;6.20;;;4.93;;
14015;SDS011;7083;48.854;9.158;2023-07-09T07:41:12;4.67;;;4.37;;
14015;SDS011;7083;48.854;9.158;2023-07-09T07:43:38;6.50;;;4.80;;
14015;SDS011;7083;48.854;9.158;2023-07-09T07:46:05;7.23;;;4.57;;
14015;SDS011;7083;48.854;9.158;2023-07-09T07:48:32;4.53;;;4.23;;
14015;SDS011;7083;48.854;9.158;2023-07-09T07:50:59;5.40;;;4.97;;
14015;SDS011;7083;48.854;9.158;2023-07-09T07:53:29;5.77;;;4.50;;
14015;SDS011;7083;48.854;9.158;2023-07-09T07:55:56;4.30;;;3.93;;
14015;SDS011;7083;48.854;9.158;2023-07-09T07:58:23;5.20;;;4.70;;
14015;SDS011;7083;48.854;9.158;2023-07-09T08:00:49;5.87;;;4.53;;
14015;SDS011;7083;48.854;9.158;2023-07-09T08:03:21;4.90;;;4.37;;
14015;SDS011;7083;48.854;9.158;2023-07-09T08:05:48;5.93;;;4.27;;
14015;SDS011;7083;48.854;9.158;2023-07-09T08:08:15;4.77;;;4.43;;
14015;SDS011;7083;48.854;9.158;2023-07-09T08:10:44;5.37;;;4.60;;
14015;SDS011;7083;48.854;9.158;2023-07-09T08:13:10;4.47;;;4.07;;
14015;SDS011;7083;48.854;9.158;2023-07-09T08:15:38;4.10;;;3.80;;
14015;SDS011;7083;48.854;9.158;2023-07-09T08:18:05;4.43;;;4.10;;
14015;SDS011;7083;48.854;9.158;2023-07-09T08:20:31;3.97;;;3.50;;
14015;SDS011;7083;48.854;9.158;2023-07-09T08:22:59;5.33;;;4.10;;
14015;SDS011;7083;48.854;9.158;2023-07-09T08:25:26;4.47;;;4.07;;
14015;SDS011;7083;48.854;9.158;2023-07-09T08:27:54;4.30;;;3.90;;
14015;SDS011;7083;48.854;9.158;2023-07-09T08:30:21;5.10;;;3.97;;
14015;SDS011;7083;48.854;9.158;2023-07-09T08:32:50;3.97;;;3.63;;
14015;SDS011;7083;48.854;9.158;2023-07-09T08:35:17;4.57;;;4.17;;
14015;SDS011;7083;48.854;9.158;2023-07-09T08:37:43;4.33;;;3.87;;
14015;SDS011;7083;48.854;9.158;2023-07-09T08:40:12;4.70;;;4.30;;
14015;SDS011;7083;48.854;9.158;2023-07-09T08:42:41;4.27;;;3.87;;
14015;SDS011;7083;48.854;9.158;2023-07-09T08:45:18;3.90;;;3.70;;
14015;SDS011;7083;48.854;9.158;2023-07-09T08:47:56;5.60;;;4.30;;
14015;SDS011;7083;48.854;9.158;2023-07-09T08:50:30;4.23;;;3.47;;
14015;SDS011;7083;48.854;9.158;2023-07-09T08:53:00;3.97;;;3.67;;
14015;SDS011;7083;48.854;9.158;2023-07-09T08:55:28;4.50;;;4.10;;
14015;SDS011;7083;48.854;9.158;2023-07-09T08:58:04;4.17;;;3.80;;
14015;SDS011;7083;48.854;9.158;2023-07-09T09:00:40;4.53;;;4.23;;
14015;SDS011;7083;48.854;9.158;2023-07-09T09:03:11;3.53;;;3.27;;
14015;SDS011;7083;48.854;9.158;2023-07-09T09:05:43;3.97;;;3.67;;
14015;SDS011;7083;48.854;9.158;2023-07-09T09:08:19;3.60;;;3.30;;
14015;SDS011;7083;48.854;9.158;2023-07-09T09:10:56;3.63;;;3.33;;
14015;SDS011;7083;48.854;9.158;2023-07-09T09:13:31;4.70;;;4.30;;
14015;SDS011;7083;48.854;9.158;2023-07-09T09:16:01;4.93;;;3.83;;
14015;SDS011;7083;48.854;9.158;2023-07-09T09:18:34;3.93;;;3.63;;
14015;SDS011;7083;48.854;9.158;2023-07-09T09:21:08;6.20;;;4.00;;
14015;SDS011;7083;48.854;9.158;2023-07-09T09:23:43;4.63;;;4.23;;
14015;SDS011;7083;48.854;9.158;2023-07-09T09:26:16;3.67;;;3.37;;
14015;SDS011;7083;48.854;9.158;2023-07-09T09:28:47;3.93;;;3.70;;
14015;SDS011;7083;48.854;9.158;2023-07-09T09:31:15;4.27;;;3.97;;
14015;SDS011;7083;48.854;9.158;2023-07-09T09:33:44;4.83;;;4.43;;
14015;SDS011;7083;48.854;9.158;2023-07-09T09:36:14;4.07;;;3.77;;
14015;SDS011;7083;48.854;9.158;2023-07-09T09:38:42;4.73;;;4.40;;
14015;SDS011;7083;48.854;9.158;2023-07-09T09:41:13;5.30;;;3.90;;
14015;SDS011;7083;48.854;9.158;2023-07-09T09:43:42;3.77;;;3.47;;
14015;SDS011;7083;48.854;9.158;2023-07-09T09:46:12;4.43;;;4.03;;
14015;SDS011;7083;48.854;9.158;2023-07-09T09:48:46;4.17;;;3.87;;
14015;SDS011;7083;48.854;9.158;2023-07-09T09:51:14;3.87;;;3.57;;
14015;SDS011;7083;48.854;9.158;2023-07-09T09:53:44;4.17;;;3.73;;
14015;SDS011;7083;48.854;9.158;2023-07-09T09:56:14;3.83;;;3.53;;
14015;SDS011;7083;48.854;9.158;2023-07-09T09:58:44;4.00;;;3.57;;
14015;SDS011;7083;48.854;9.158;2023-07-09T10:01:12;4.23;;;3.83;;
14015;SDS011;7083;48.854;9.158;2023-07-09T10:03:42;3.93;;;3.50;;
14015;SDS011;7083;48.854;9.158;2023-07-09T10:06:12;4.03;;;3.73;;
14015;SDS011;7083;48.854;9.158;2023-07-09T10:08:46;4.35;;;3.65;;
14015;SDS011;7083;48.854;9.158;2023-07-09T10:11:23;5.18;;;4.10;;
14015;SDS011;7083;48.854;9.158;2023-07-09T10:13:55;5.57;;;3.78;;
14015;SDS011;7083;48.854;9.158;2023-07-09T10:16:29;4.03;;;3.72;;
14015;SDS011;7083;48.854;9.158;2023-07-09T10:19:07;3.47;;;3.20;;
14015;SDS011;7083;48.854;9.158;2023-07-09T10:21:41;5.22;;;3.75;;
14015;SDS011;7083;48.854;9.158;2023-07-09T10:24:16;3.03;;;2.83;;
14015;SDS011;7083;48.854;9.158;2023-07-09T10:26:58;4.77;;;3.60;;
14015;SDS011;7083;48.854;9.158;2023-07-09T10:29:49;3.10;;;2.90;;
14015;SDS011;7083;48.854;9.158;2023-07-09T10:32:30;3.75;;;3.13;;
14015;SDS011;7083;48.854;9.158;2023-07-09T10:35:11;3.17;;;2.88;;
14015;SDS011;7083;48.854;9.158;2023-07-09T10:37:48;2.83;;;2.63;;
14015;SDS011;7083;48.854;9.158;2023-07-09T10:40:31;3.25;;;3.05;;
14015;SDS011;7083;48.854;9.158;2023-07-09T10:43:02;3.55;;;3.08;;
14015;SDS011;7083;48.854;9.158;2023-07-09T10:45:32;3.13;;;2.92;;
14015;SDS011;7083;48.854;9.158;2023-07-09T10:48:04;3.40;;;3.20;;
14015;SDS011;7083;48.854;9.158;2023-07-09T10:50:39;4.28;;;3.20;;
14015;SDS011;7083;48.854;9.158;2023-07-09T10:53:13;3.42;;;3.20;;
14015;SDS011;7083;48.854;9.158;2023-07-09T10:55:43;5.13;;;3.38;;
14015;SDS011;7083;48.854;9.158;2023-07-09T10:58:19;5.28;;;3.22;;
14015;SDS011;7083;48.854;9.158;2023-07-09T11:00:54;3.00;;;2.80;;
14015;SDS011;7083;48.854;9.158;2023-07-09T11:03:22;4.07;;;3.38;;
14015;SDS011;7083;48.854;9.158;2023-07-09T11:05:56;3.08;;;2.85;;
14015;SDS011;7083;48.854;9.158;2023-07-09T11:08:23;3.67;;;3.17;;
14015;SDS011;7083;48.854;9.158;2023-07-09T11:10:56;3.85;;;3.50;;
14015;SDS011;7083;48.854;9.158;2023-07-09T11:13:26;3.58;;;3.28;;
14015;SDS011;7083;48.854;9.158;2023-07-09T11:16:00;4.43;;;3.45;;
14015;SDS011;7083;48.854;9.158;2023-07-09T11:18:30;3.08;;;2.88;;
14015;SDS011;7083;48.854;9.158;2023-07-09T11:21:03;3.97;;;3.03;;
14015;SDS011;7083;48.854;9.158;2023-07-09T11:23:39;3.38;;;3.08;;
14015;SDS011;7083;48.854;9.158;2023-07-09T11:26:11;5.03;;;3.13;;
14015;SDS011;7083;48.854;9.158;2023-07-09T11:28:40;3.25;;;3.00;;
14015;SDS011;7083;48.854;9.158;2023-07-09T11:31:16;3.33;;;3.00;;
14015;SDS011;7083;48.854;9.158;2023-07-09T11:33:47;3.50;;;3.25;;
14015;SDS011;7083;48.854;9.158;2023-07-09T11:36:26;4.10;;;3.30;;
14015;SDS011;7083;48.854;9.158;2023-07-09T11:38:54;3.65;;;3.30;;
14015;SDS011;7083;48.854;9.158;2023-07-09T11:41:28;3.83;;;3.50;;
14015;SDS011;7083;48.854;9.158;2023-07-09T11:44:09;3.33;;;3.03;;
14015;SDS011;7083;48.854;9.158;2023-07-09T11:46:43;3.63;;;3.30;;
14015;SDS011;7083;48.854;9.158;2023-07-09T11:49:31;3.83;;;3.53;;
14015;SDS011;7083;48.854;9.158;2023-07-09T11:52:06;4.50;;;3.85;;
14015;SDS011;7083;48.854;9.158;2023-07-09T11:54:36;4.53;;;4.13;;
14015;SDS011;7083;48.854;9.158;2023-07-09T11:57:07;3.75;;;3.45;;
14015;SDS011;7083;48.854;9.158;2023-07-09T11:59:38;4.25;;;3.78;;
14015;SDS011;7083;48.854;9.158;2023-07-09T12:02:05;5.78;;;3.85;;
14015;SDS011;7083;48.854;9.158;2023-07-09T12:04:40;3.90;;;3.55;;
14015;SDS011;7083;48.854;9.158;2023-07-09T12:07:12;5.30;;;4.00;;
14015;SDS011;7083;48.854;9.158;2023-07-09T12:09:43;3.95;;;3.65;;
14015;SDS011;7083;48.854;9.158;2023-07-09T12:12:16;7.18;;;4.05;;
14015;SDS011;7083;48.854;9.158;2023-07-09T12:14:44;5.88;;;3.50;;
14015;SDS011;7083;48.854;9.158;2023-07-09T12:17:11;5.20;;;3.58;;
14015;SDS011;7083;48.854;9.158;2023-07-09T12:19:38;4.07;;;3.47;;
14015;SDS011;7083;48.854;9.158;2023-07-09T12:22:06;3.55;;;3.25;;
14015;SDS011;7083;48.854;9.158;2023-07-09T12:24:42;4.53;;;4.13;;
14015;SDS011;7083;48.854;9.158;2023-07-09T12:27:20;4.47;;;4.07;;
14015;SDS011;7083;48.854;9.158;2023-07-09T12:29:50;3.88;;;3.58;;
14015;SDS011;7083;48.854;9.158;2023-07-09T12:32:18;4.68;;;4.28;;
14015;SDS011;7083;48.854;9.158;2023-07-09T12:34:50;4.65;;;3.95;;
14015;SDS011;7083;48.854;9.158;2023-07-09T12:37:19;8.27;;;4.10;;
14015;SDS011;7083;48.854;9.158;2023-07-09T12:39:48;6.35;;;3.80;;
14015;SDS011;7083;48.854;9.158;2023-07-09T12:42:17;6.20;;;3.58;;
14015;SDS011;7083;48.854;9.158;2023-07-09T12:44:45;4.32;;;3.92;;
14015;SDS011;7083;48.854;9.158;2023-07-09T12:47:14;4.15;;;3.60;;
14015;SDS011;7083;48.854;9.158;2023-07-09T12:49:42;3.70;;;3.33;;
14015;SDS011;7083;48.854;9.158;2023-07-09T12:52:12;4.63;;;3.67;;
14015;SDS011;7083;48.854;9.158;2023-07-09T12:54:50;3.53;;;3.10;;
14015;SDS011;7083;48.854;9.158;2023-07-09T12:57:18;5.60;;;4.03;;
14015;SDS011;7083;48.854;9.158;2023-07-09T12:59:45;4.13;;;3.80;;
14015;SDS011;7083;48.854;9.158;2023-07-09T13:02:14;7.18;;;4.35;;
14015;SDS011;7083;48.854;9.158;2023-07-09T13:04:43;5.10;;;3.53;;
14015;SDS011;7083;48.854;9.158;2023-07-09T13:07:26;3.80;;;3.40;;
14015;SDS011;7083;48.854;9.158;2023-07-09T13:10:03;4.25;;;3.75;;
14015;SDS011;7083;48.854;9.158;2023-07-09T13:12:32;6.57;;;3.40;;
14015;SDS011;7083;48.854;9.158;2023-07-09T13:14:59;4.50;;;3.58;;
14015;SDS011;7083;48.854;9.158;2023-07-09T13:17:28;6.50;;;3.38;;
14015;SDS011;7083;48.854;9.158;2023-07-09T13:19:56;4.43;;;3.30;;
14015;SDS011;7083;48.854;9.158;2023-07-09T13:22:23;3.63;;;3.30;;
14015;SDS011;7083;48.854;9.158;2023-07-09T13:24:50;6.25;;;3.30;;
14015;SDS011;7083;48.854;9.158;2023-07-09T13:27:18;4.25;;;3.40;;
14015;SDS011;7083;48.854;9.158;2023-07-09T13:29:45;4.55;;;3.92;;
14015;SDS011;7083;48.854;9.158;2023-07-09T13:32:13;6.50;;;3.15;;
14015;SDS011;7083;48.854;9.158;2023-07-09T13:34:41;6.00;;;3.67;;
14015;SDS011;7083;48.854;9.158;2023-07-09T13:37:08;3.90;;;3.45;;
14015;SDS011;7083;48.854;9.158;2023-07-09T13:39:38;4.30;;;3.88;;
14015;SDS011;7083;48.854;9.158;2023-07-09T13:42:05;3.53;;;2.90;;
14015;SDS011;7083;48.854;9.158;2023-07-09T13:44:38;3.45;;;3.17;;
14015;SDS011;7083;48.854;9.158;2023-07-09T13:47:08;3.28;;;3.00;;
14015;SDS011;7083;48.854;9.158;2023-07-09T13:49:39;3.45;;;3.25;;
14015;SDS011;7083;48.854;9.158;2023-07-09T13:52:08;2.72;;;2.50;;
14015;SDS011;7083;48.854;9.158;2023-07-09T13:54:40;3.13;;;2.55;;
14015;SDS011;7083;48.854;9.158;2023-07-09T13:57:09;5.28;;;3.00;;
14015;SDS011;7083;48.854;9.158;2023-07-09T13:59:41;3.10;;;2.80;;
14015;SDS011;7083;48.854;9.158;2023-07-09T14:02:16;4.63;;;3.33;;
14015;SDS011;7083;48.854;9.158;2023-07-09T14:04:45;3.35;;;3.05;;
14015;SDS011;7083;48.854;9.158;2023-07-09T14:07:14;5.97;;;2.97;;
14015;SDS011;7083;48.854;9.158;2023-07-09T14:09:50;4.63;;;3.58;;
14015;SDS011;7083;48.854;9.158;2023-07-09T14:12:17;3.78;;;2.83;;
14015;SDS011;7083;48.854;9.158;2023-07-09T14:14:45;5.80;;;3.10;;
14015;SDS011;7083;48.854;9.158;2023-07-09T14:17:13;3.33;;;3.03;;
14015;SDS011;7083;48.854;9.158;2023-07-09T14:19:39;6.25;;;3.00;;
14015;SDS011;7083;48.854;9.158;2023-07-09T14:22:13;4.32;;;3.28;;
14015;SDS011;7083;48.854;9.158;2023-07-09T14:24:47;4.10;;;3.08;;
14015;SDS011;7083;48.854;9.158;2023-07-09T14:27:13;3.50;;;3.28;;
14015;SDS011;7083;48.854;9.158;2023-07-09T14:29:40;3.33;;;2.97;;
14015;SDS011;7083;48.854;9.158;2023-07-09T14:32:08;6.05;;;3.15;;
14015;SDS011;7083;48.854;9.158;2023-07-09T14:34:56;3.22;;;2.63;;
14015;SDS011;7083;48.854;9.158;2023-07-09T14:37:23;3.13;;;2.80;;
14015;SDS011;7083;48.854;9.158;2023-07-09T14:39:51;5.00;;;3.10;;
14015;SDS011;7083;48.854;9.158;2023-07-09T14:42:18;3.25;;;3.03;;
14015;SDS011;7083;48.854;9.158;2023-07-09T14:44:47;4.97;;;3.83;;
14015;SDS011;7083;48.854;9.158;2023-07-09T14:47:15;3.17;;;3.00;;
14015;SDS011;7083;48.854;9.158;2023-07-09T14:49:44;2.83;;;2.63;;
14015;SDS011;7083;48.854;9.158;2023-07-09T14:52:11;2.70;;;2.58;;
14015;SDS011;7083;48.854;9.158;2023-07-09T14:54:39;3.17;;;2.97;;
14015;SDS011;7083;48.854;9.158;2023-07-09T14:57:08;4.07;;;2.67;;
14015;SDS011;7083;48.854;9.158;2023-07-09T14:59:42;2.97;;;2.65;;
14015;SDS011;7083;48.854;9.158;2023-07-09T15:02:15;3.35;;;3.05;;
14015;SDS011;7083;48.854;9.158;2023-07-09T15:04:49;3.38;;;3.08;;
14015;SDS011;7083;48.854;9.158;2023-07-09T15:07:16;3.20;;;2.80;;
14015;SDS011;7083;48.854;9.158;2023-07-09T15:09:42;4.13;;;2.63;;
14015;SDS011;7083;48.854;9.158;2023-07-09T15:12:13;2.60;;;2.40;;
14015;SDS011;7083;48.854;9.158;2023-07-09T15:14:44;6.07;;;3.08;;
14015;SDS011;7083;48.854;9.158;2023-07-09T15:17:11;3.28;;;2.92;;
14015;SDS011;7083;48.854;9.158;2023-07-09T15:19:39;2.67;;;2.47;;